Time;durP1;ratioP1;P1;durP2;ratioP2;P2;SDS_P1;SDS_P2;PMS_P1;PMS_P2;Temp;Humidity;BMP_temperature;BMP_pressure;BME280_temperature;BME280_humidity;BME280_pressure;Samples;Min_cycle;Max_cycle;Signal;HPM_P1;HPM_P2
2023/08/23 00:00:15;;;;;;;10.00;4.68;;;;;;;27.61;48.35;101190.91;5113695;28;20023;-45
2023/08/23 00:02:41;;;;;;;9.55;4.85;;;;;;;27.38;48.98;101191.22;5113633;28;20469;-47
2023/08/23 00:05:08;;;;;;;8.45;4.93;;;;;;;27.38;49.63;101192.03;5108532;28;20039;-44
2023/08/23 00:07:34;;;;;;;8.75;4.90;;;;;;;27.37;49.97;101195.88;5088415;28;20032;-47
2023/08/23 00:10:00;;;;;;;10.30;5.68;;;;;;;27.15;50.72;101193.09;5084953;28;20073;-44
2023/08/23 00:12:27;;;;;;;10.35;5.45;;;;;;;26.97;50.99;101190.16;5080009;28;20035;-44
2023/08/23 00:14:53;;;;;;;8.40;5.72;;;;;;;27.12;50.61;101189.03;5086422;28;20545;-45
2023/08/23 00:17:19;;;;;;;10.57;5.88;;;;;;;26.53;51.62;101177.88;5087367;28;20399;-47
2023/08/23 00:19:46;;;;;;;7.00;5.10;;;;;;;26.20;52.90;101187.28;5092021;28;20478;-46
2023/08/23 00:22:12;;;;;;;10.75;5.68;;;;;;;26.51;53.04;101182.88;5092532;28;20024;-44
2023/08/23 00:24:38;;;;;;;16.30;6.10;;;;;;;26.37;53.25;101183.94;5092728;28;20031;-44
2023/08/23 00:27:05;;;;;;;12.45;6.85;;;;;;;26.30;53.82;101173.38;5090143;28;20114;-44
2023/08/23 00:29:31;;;;;;;11.82;6.47;;;;;;;26.09;54.65;101183.09;5085928;28;20033;-47
2023/08/23 00:31:57;;;;;;;8.25;5.22;;;;;;;26.07;54.58;101175.19;5072354;28;20645;-49
2023/08/23 00:34:24;;;;;;;8.15;5.70;;;;;;;25.92;54.83;101172.69;5091667;28;20470;-46
2023/08/23 00:36:50;;;;;;;10.85;6.50;;;;;;;25.51;55.77;101179.66;5091933;28;20027;-46
2023/08/23 00:39:16;;;;;;;9.30;5.90;;;;;;;25.39;56.01;101171.06;5095156;28;20020;-46
2023/08/23 00:41:44;;;;;;;11.68;6.22;;;;;;;25.30;56.79;101172.84;5091374;28;20060;-49
2023/08/23 00:44:10;;;;;;;8.57;6.15;;;;;;;25.14;57.25;101172.25;5091071;28;20043;-50
2023/08/23 00:46:37;;;;;;;13.68;7.43;;;;;;;25.06;57.55;101172.09;5102404;28;20028;-49
2023/08/23 00:49:04;;;;;;;8.20;6.35;;;;;;;25.13;57.31;101167.06;5099756;28;20024;-46
2023/08/23 00:51:31;;;;;;;10.60;6.57;;;;;;;24.88;57.63;101170.94;5092206;28;20094;-47
2023/08/23 00:53:57;;;;;;;9.27;6.22;;;;;;;24.75;58.25;101161.50;5092229;28;20039;-48
2023/08/23 00:56:24;;;;;;;12.32;6.50;;;;;;;24.88;57.54;101163.56;5091683;28;20032;-47
2023/08/23 00:58:50;;;;;;;11.63;6.28;;;;;;;24.84;57.42;101162.50;5088664;28;20020;-48
2023/08/23 01:01:16;;;;;;;12.18;6.95;;;;;;;24.83;57.73;101168.28;5090771;28;20112;-51
2023/08/23 01:03:43;;;;;;;11.77;6.95;;;;;;;24.80;57.49;101152.44;5091302;28;20466;-50
2023/08/23 01:06:48;;;;;;;8.77;6.07;;;;;;;24.63;58.30;101159.19;5090387;28;20455;-48
2023/08/23 01:09:35;;;;;;;10.70;6.57;;;;;;;24.60;58.29;101153.53;5061315;28;20044;-46
2023/08/23 01:12:25;;;;;;;10.27;6.85;;;;;;;24.56;58.57;101160.69;5078900;28;20099;-49
2023/08/23 01:15:02;;;;;;;14.07;7.82;;;;;;;24.36;59.25;101162.53;5088725;28;20031;-51
2023/08/23 01:17:31;;;;;;;12.95;7.18;;;;;;;24.51;60.00;101163.47;5090631;28;20057;-50
2023/08/23 01:19:58;;;;;;;15.82;7.40;;;;;;;24.32;60.42;101158.72;5088561;28;20039;-50
2023/08/23 01:22:30;;;;;;;9.88;6.30;;;;;;;24.26;59.50;101159.84;5091272;28;20031;-47
2023/08/23 01:24:57;;;;;;;12.07;6.30;;;;;;;24.49;59.68;101159.09;5089216;28;20111;-49
2023/08/23 01:27:23;;;;;;;10.23;6.60;;;;;;;24.41;59.23;101154.25;5083755;28;20039;-47
2023/08/23 01:29:50;;;;;;;9.43;6.25;;;;;;;24.59;58.92;101155.41;5086226;28;20023;-47
2023/08/23 01:32:39;;;;;;;10.85;5.63;;;;;;;24.58;59.08;101155.72;5090253;28;20032;-50
2023/08/23 01:35:35;;;;;;;10.88;6.40;;;;;;;24.34;58.89;101159.25;5092085;28;20035;-47
2023/08/23 01:38:01;;;;;;;;;;;;;;;24.27;59.27;101164.25;5091875;28;20047;-48
2023/08/23 01:40:28;;;;;;;10.45;6.55;;;;;;;24.22;59.19;101154.19;5090438;28;19998;-48
2023/08/23 01:42:55;;;;;;;9.70;6.35;;;;;;;24.24;59.03;101156.59;5090615;28;20023;-50
2023/08/23 01:45:21;;;;;;;10.52;6.65;;;;;;;23.98;59.57;101154.13;5074016;28;20469;-47
2023/08/23 01:47:48;;;;;;;9.73;6.13;;;;;;;24.13;59.25;101153.16;5092005;28;20031;-47
2023/08/23 01:50:14;;;;;;;11.38;6.55;;;;;;;24.01;59.37;101149.19;5090852;28;20079;-46
2023/08/23 01:52:40;;;;;;;7.80;5.93;;;;;;;24.16;59.29;101154.53;5091815;28;20020;-46
2023/08/23 01:55:07;;;;;;;10.75;6.60;;;;;;;24.13;59.47;101155.09;5091196;28;20027;-47
2023/08/23 01:57:33;;;;;;;12.60;6.53;;;;;;;24.08;59.01;101152.41;5090484;28;20028;-50
2023/08/23 01:59:59;;;;;;;11.60;6.43;;;;;;;24.04;59.29;101152.19;5091869;28;20485;-46
2023/08/23 02:02:25;;;;;;;7.95;6.10;;;;;;;24.11;59.28;101146.38;5091837;28;20085;-49
2023/08/23 02:04:52;;;;;;;10.10;6.38;;;;;;;24.04;59.33;101151.34;5089457;28;20036;-49
2023/08/23 02:07:18;;;;;;;9.65;6.30;;;;;;;24.05;59.53;101151.06;5079249;28;20069;-47
2023/08/23 02:09:44;;;;;;;12.40;6.82;;;;;;;23.69;61.02;101142.38;5070803;28;20107;-49
2023/08/23 02:12:10;;;;;;;14.05;6.45;;;;;;;23.81;60.64;101148.28;5071186;28;20021;-55
2023/08/23 02:14:37;;;;;;;11.15;6.45;;;;;;;23.80;60.64;101156.78;5085992;28;20024;-51
2023/08/23 02:17:03;;;;;;;9.27;5.88;;;;;;;23.87;60.38;101155.31;5089105;28;20035;-48
2023/08/23 02:19:29;;;;;;;8.98;6.22;;;;;;;23.98;59.79;101169.72;5084805;28;20039;-49
2023/08/23 02:21:56;;;;;;;10.43;6.78;;;;;;;23.69;60.65;101167.78;5078344;28;20035;-48
2023/08/23 02:24:22;;;;;;;9.15;6.38;;;;;;;23.75;61.07;101170.47;5090018;28;20115;-50
2023/08/23 02:26:48;;;;;;;8.68;6.03;;;;;;;23.74;60.92;101166.13;5074435;28;20027;-48
2023/08/23 02:29:14;;;;;;;11.40;6.13;;;;;;;23.67;61.22;101171.91;5091298;28;20024;-50
2023/08/23 02:31:41;;;;;;;9.27;6.50;;;;;;;23.36;62.20;101163.09;5095003;28;20027;-50
2023/08/23 02:34:07;;;;;;;9.48;6.53;;;;;;;23.08;63.03;101168.16;5080323;28;20106;-48
2023/08/23 02:36:33;;;;;;;13.07;7.05;;;;;;;23.14;63.10;101169.78;5083321;28;20129;-48
2023/08/23 02:39:00;;;;;;;9.68;6.25;;;;;;;23.21;62.63;101172.22;5078030;28;20028;-50
2023/08/23 02:41:26;;;;;;;10.98;6.57;;;;;;;22.71;64.78;101176.81;5088015;28;20020;-49
2023/08/23 02:43:52;;;;;;;10.85;6.30;;;;;;;22.60;65.12;101176.03;5074386;28;20032;-50
2023/08/23 02:46:18;;;;;;;10.82;6.75;;;;;;;22.67;65.11;101181.19;5074468;28;20029;-47
2023/08/23 02:48:45;;;;;;;12.13;7.43;;;;;;;22.79;64.79;101173.47;5074346;28;20027;-50
2023/08/23 02:51:11;;;;;;;12.48;6.60;;;;;;;22.83;64.73;101177.28;5074235;28;20047;-50
2023/08/23 02:53:37;;;;;;;9.52;6.95;;;;;;;22.73;65.32;101181.97;5080856;28;20398;-47
2023/08/23 02:56:04;;;;;;;13.02;7.18;;;;;;;22.22;66.90;101182.94;5078380;28;20490;-48
2023/08/23 02:58:30;;;;;;;9.73;6.07;;;;;;;22.42;66.74;101181.25;5094559;28;20462;-50
2023/08/23 03:00:56;;;;;;;11.40;7.18;;;;;;;22.54;66.08;101187.19;5094383;28;20477;-48
2023/08/23 03:03:22;;;;;;;10.48;7.15;;;;;;;22.22;67.31;101188.38;5092848;28;20544;-48
2023/08/23 03:05:57;;;;;;;12.13;7.00;;;;;;;22.17;67.97;101196.56;5091958;28;20028;-49
2023/08/23 03:08:25;;;;;;;9.10;6.70;;;;;;;22.34;67.17;101196.28;5094686;28;20025;-49
2023/08/23 03:10:52;;;;;;;11.38;6.78;;;;;;;22.19;67.85;101205.28;5082157;28;20028;-48
2023/08/23 03:13:18;;;;;;;10.82;6.50;;;;;;;22.02;69.05;101208.25;5082684;28;20453;-49
2023/08/23 03:15:52;;;;;;;10.00;7.13;;;;;;;21.86;69.74;101218.34;5092388;28;20078;-49
2023/08/23 03:18:18;;;;;;;8.95;6.53;;;;;;;21.98;69.33;101209.91;5075283;28;20055;-49
2023/08/23 03:20:44;;;;;;;11.85;6.40;;;;;;;21.83;70.05;101216.19;5088588;28;20067;-50
2023/08/23 03:23:11;;;;;;;11.15;7.38;;;;;;;21.80;70.00;101211.25;5083149;28;20089;-47
2023/08/23 03:25:37;;;;;;;12.40;6.85;;;;;;;21.86;69.87;101218.34;5094835;28;20036;-50
2023/08/23 03:28:03;;;;;;;9.68;7.15;;;;;;;21.79;70.69;101208.81;5072533;28;20021;-50
2023/08/23 03:30:30;;;;;;;10.75;6.47;;;;;;;21.62;71.05;101217.25;5075779;28;20056;-47
2023/08/23 03:32:56;;;;;;;9.07;6.30;;;;;;;21.78;70.63;101215.38;5083064;28;20017;-50
2023/08/23 03:35:22;;;;;;;10.20;6.50;;;;;;;21.76;71.06;101218.34;5073368;28;20036;-50
2023/08/23 03:37:48;;;;;;;9.48;6.53;;;;;;;21.56;71.88;101213.69;5080428;28;20023;-48
2023/08/23 03:40:15;;;;;;;10.57;6.97;;;;;;;21.60;71.69;101219.44;5092064;28;20495;-51
2023/08/23 03:42:41;;;;;;;9.85;6.38;;;;;;;21.52;72.22;101228.13;5114508;28;20066;-49
2023/08/23 03:45:08;;;;;;;11.75;6.75;;;;;;;21.64;71.94;101227.88;5114097;28;20035;-50
2023/08/23 03:47:34;;;;;;;13.55;5.93;;;;;;;21.58;71.77;101233.31;5092842;28;20385;-49
2023/08/23 03:50:01;;;;;;;11.48;6.93;;;;;;;21.22;73.66;101237.03;5079624;28;20043;-49
2023/08/23 03:52:27;;;;;;;10.18;7.00;;;;;;;21.40;73.10;101235.72;5082043;28;20059;-48
2023/08/23 03:54:53;;;;;;;13.43;7.57;;;;;;;21.22;73.80;101234.28;5094794;28;20035;-47
2023/08/23 03:57:19;;;;;;;10.18;6.80;;;;;;;21.14;74.43;101251.13;5082333;28;20035;-48
2023/08/23 03:59:45;;;;;;;9.48;6.70;;;;;;;21.04;75.52;101250.03;5078876;28;20036;-47
2023/08/23 04:02:12;;;;;;;11.50;6.88;;;;;;;20.96;75.63;101247.78;5100300;28;20032;-50
2023/08/23 04:04:38;;;;;;;10.07;7.18;;;;;;;20.86;76.25;101252.38;5091683;28;20035;-50
2023/08/23 04:07:09;;;;;;;14.10;6.97;;;;;;;20.74;76.92;101256.13;5080325;28;20024;-49
2023/08/23 04:09:35;;;;;;;11.82;7.28;;;;;;;20.90;76.53;101256.19;5072931;28;20020;-46
2023/08/23 04:12:01;;;;;;;9.60;6.80;;;;;;;20.78;77.16;101259.94;5080760;28;20024;-48
2023/08/23 04:14:27;;;;;;;11.45;6.88;;;;;;;20.94;76.76;101258.13;5072976;28;20149;-47
2023/08/23 04:16:54;;;;;;;11.43;7.18;;;;;;;20.66;77.83;101263.97;5072842;28;20043;-47
2023/08/23 04:19:20;;;;;;;10.05;7.28;;;;;;;20.60;78.41;101262.28;5072858;28;20056;-50
2023/08/23 04:21:47;;;;;;;9.48;6.90;;;;;;;20.72;77.53;101265.63;5082751;28;20024;-51
2023/08/23 04:24:13;;;;;;;9.02;6.50;;;;;;;20.73;77.80;101267.25;5093417;28;20025;-50
2023/08/23 04:26:39;;;;;;;10.43;7.22;;;;;;;20.65;78.15;101265.84;5072410;28;20112;-50
2023/08/23 04:29:05;;;;;;;10.02;7.40;;;;;;;20.64;78.35;101269.66;5072612;28;20036;-49
2023/08/23 04:31:32;;;;;;;11.23;7.47;;;;;;;20.66;78.02;101278.38;5072580;28;20479;-50
2023/08/23 04:33:58;;;;;;;9.32;6.45;;;;;;;20.55;78.87;101285.66;5072408;28;20570;-50
2023/08/23 04:36:24;;;;;;;11.07;7.25;;;;;;;20.51;79.11;101273.66;5072061;28;20028;-48
2023/08/23 04:38:50;;;;;;;13.43;7.97;;;;;;;20.34;79.85;101269.44;5083204;28;20047;-46
2023/08/23 04:41:16;;;;;;;10.88;6.80;;;;;;;20.35;80.19;101279.22;5092243;28;20016;-50
2023/08/23 04:43:43;;;;;;;9.60;7.22;;;;;;;20.20;81.23;101279.91;5092506;28;20032;-49
2023/08/23 04:46:09;;;;;;;10.57;7.85;;;;;;;20.21;81.68;101273.38;5092255;28;20154;-50
2023/08/23 04:48:35;;;;;;;13.02;7.82;;;;;;;20.09;82.39;101279.00;5097239;28;20020;-48
2023/08/23 04:51:04;;;;;;;15.27;7.68;;;;;;;20.10;82.50;101286.09;5092388;28;20435;-50
2023/08/23 04:53:30;;;;;;;11.63;7.35;;;;;;;19.89;84.04;101285.09;5092686;28;20139;-47
2023/08/23 04:56:00;;;;;;;9.60;7.20;;;;;;;19.76;84.60;101289.00;5090784;28;20024;-46
2023/08/23 04:58:32;;;;;;;10.73;7.82;;;;;;;19.82;84.52;101283.63;5090349;28;20036;-48
2023/08/23 05:01:03;;;;;;;10.48;7.18;;;;;;;19.91;84.26;101276.66;5083410;28;20509;-47
2023/08/23 05:03:31;;;;;;;11.05;7.85;;;;;;;19.84;84.50;101278.78;5079723;28;20114;-50
2023/08/23 05:05:59;;;;;;;9.05;6.80;;;;;;;19.79;85.07;101282.25;5091681;28;20024;-47
2023/08/23 05:08:26;;;;;;;9.68;6.47;;;;;;;20.03;83.83;101282.75;5092208;28;20028;-50
2023/08/23 05:10:53;;;;;;;14.25;8.20;;;;;;;19.93;84.50;101278.06;5092034;28;20489;-47
2023/08/23 05:13:20;;;;;;;12.23;7.72;;;;;;;19.87;84.82;101278.25;5092370;28;20117;-49
2023/08/23 05:15:56;;;;;;;8.90;7.05;;;;;;;19.90;84.81;101272.31;5091840;28;20027;-50
2023/08/23 05:18:23;;;;;;;11.60;7.43;;;;;;;19.90;84.60;101278.56;5091994;28;20031;-50
2023/08/23 05:20:54;;;;;;;9.65;6.88;;;;;;;19.97;84.58;101286.50;5091986;28;20105;-50
2023/08/23 05:23:24;;;;;;;10.82;6.88;;;;;;;19.91;84.93;101280.19;5088925;28;20024;-49
2023/08/23 05:25:52;;;;;;;14.70;7.72;;;;;;;19.65;86.31;101281.84;5055574;28;20024;-49
2023/08/23 05:28:22;;;;;;;9.77;6.75;;;;;;;19.66;86.27;101275.34;5087526;28;20024;-50
2023/08/23 05:30:50;;;;;;;10.45;6.60;;;;;;;19.56;86.95;101279.81;5092151;28;20031;-50
2023/08/23 05:33:17;;;;;;;11.23;7.32;;;;;;;19.41;87.94;101275.84;5091237;28;20024;-50
2023/08/23 05:35:44;;;;;;;9.13;7.30;;;;;;;19.38;88.63;101284.53;5087067;28;20100;-50
2023/08/23 05:38:10;;;;;;;9.82;7.03;;;;;;;19.45;87.77;101281.59;5081936;28;20126;-49
2023/08/23 05:40:37;;;;;;;15.32;7.63;;;;;;;19.48;87.49;101278.38;5087945;28;20508;-48
2023/08/23 05:43:04;;;;;;;8.45;6.70;;;;;;;19.47;87.90;101279.44;5082674;28;20021;-50
2023/08/23 05:45:30;;;;;;;10.30;6.90;;;;;;;19.49;87.47;101280.03;5071652;28;20112;-50
2023/08/23 05:47:58;;;;;;;10.52;6.45;;;;;;;19.36;88.68;101285.81;5071289;28;20021;-51
2023/08/23 05:50:25;;;;;;;8.38;5.70;;;;;;;19.53;87.89;101284.66;5074284;28;20040;-50
2023/08/23 05:52:51;;;;;;;9.50;6.00;;;;;;;19.32;89.07;101284.69;5070139;28;20119;-50
2023/08/23 05:55:18;;;;;;;9.57;5.65;;;;;;;19.11;90.51;101289.88;5070192;28;20052;-50
2023/08/23 05:57:44;;;;;;;8.70;5.88;;;;;;;19.14;90.35;101285.84;5071056;28;20024;-49
2023/08/23 06:00:11;;;;;;;8.77;5.90;;;;;;;19.35;88.65;101292.34;5071245;28;20020;-49
2023/08/23 06:02:38;;;;;;;8.85;6.18;;;;;;;19.31;88.91;101291.19;5071090;28;20025;-50
2023/08/23 06:05:06;;;;;;;10.05;5.43;;;;;;;19.23;89.91;101287.84;5071123;28;20119;-51
2023/08/23 06:07:32;;;;;;;8.68;5.85;;;;;;;19.15;90.62;101282.03;5070869;28;20036;-50
2023/08/23 06:09:59;;;;;;;6.97;5.57;;;;;;;19.13;90.80;101289.63;5070597;28;20075;-50
2023/08/23 06:12:27;;;;;;;7.82;6.10;;;;;;;19.14;90.52;101289.38;5071093;28;20021;-50
2023/08/23 06:14:55;;;;;;;10.40;6.43;;;;;;;19.06;91.14;101289.81;5070753;28;20024;-48
2023/08/23 06:17:21;;;;;;;10.55;6.82;;;;;;;18.91;92.42;101287.72;5070922;28;20024;-49
2023/08/23 06:19:47;;;;;;;9.45;6.18;;;;;;;18.94;92.67;101291.81;5071158;28;20028;-50
2023/08/23 06:22:14;;;;;;;8.93;6.32;;;;;;;19.05;91.34;101284.66;5071189;28;20043;-49
2023/08/23 06:24:40;;;;;;;7.45;5.82;;;;;;;19.06;91.71;101286.28;5070820;28;20024;-50
2023/08/23 06:27:06;;;;;;;7.22;5.70;;;;;;;19.08;91.18;101287.66;5070518;28;20035;-50
2023/08/23 06:29:32;;;;;;;6.85;5.60;;;;;;;18.88;93.22;101288.22;5089780;28;20032;-50
2023/08/23 06:31:59;;;;;;;7.95;5.85;;;;;;;19.04;92.46;101289.22;5091152;28;20381;-49
2023/08/23 06:34:25;;;;;;;11.20;5.93;;;;;;;18.82;94.21;101281.09;5091305;28;20432;-50
2023/08/23 06:36:51;;;;;;;6.03;5.43;;;;;;;18.82;93.25;101282.97;5090832;28;20051;-47
2023/08/23 06:39:18;;;;;;;8.45;5.78;;;;;;;18.81;93.84;101282.13;5081397;28;20056;-46
2023/08/23 06:41:44;;;;;;;9.30;6.38;;;;;;;18.77;94.24;101282.88;5085487;28;20024;-46
2023/08/23 06:44:10;;;;;;;6.68;5.63;;;;;;;18.80;93.62;101285.94;5091109;28;20024;-49
2023/08/23 06:46:36;;;;;;;9.32;6.32;;;;;;;18.64;94.70;101281.31;5072804;28;20024;-47
2023/08/23 06:49:04;;;;;;;8.77;5.80;;;;;;;18.70;94.65;101283.88;5070672;28;20052;-49
2023/08/23 06:51:30;;;;;;;8.00;7.07;;;;;;;18.44;95.77;101281.84;5070658;28;20055;-47
2023/08/23 06:53:57;;;;;;;9.57;6.65;;;;;;;18.55;95.67;101278.22;5070965;28;20024;-48
2023/08/23 06:56:25;;;;;;;8.88;6.45;;;;;;;18.48;95.96;101274.84;5072422;28;20078;-47
2023/08/23 06:58:51;;;;;;;6.50;5.85;;;;;;;18.50;95.50;101280.84;5070632;28;20029;-47
2023/08/23 07:01:18;;;;;;;6.55;5.88;;;;;;;18.50;95.60;101285.47;5070835;28;20035;-47
2023/08/23 07:03:45;;;;;;;7.82;6.88;;;;;;;18.38;96.12;101277.41;5078806;28;20081;-48
2023/08/23 07:06:15;;;;;;;6.70;6.10;;;;;;;18.50;95.93;101285.47;5083916;28;20039;-49
2023/08/23 07:08:42;;;;;;;7.22;6.03;;;;;;;18.50;95.79;101283.56;5073941;28;20032;-47
2023/08/23 07:11:09;;;;;;;6.53;5.82;;;;;;;18.48;95.52;101280.25;5079145;28;20465;-46
2023/08/23 07:13:38;;;;;;;6.80;5.93;;;;;;;18.41;95.61;101282.34;5073792;28;20097;-47
2023/08/23 07:16:04;;;;;;;5.65;5.15;;;;;;;18.60;95.09;101283.72;5073928;28;20115;-50
2023/08/23 07:18:31;;;;;;;7.18;5.95;;;;;;;18.37;95.95;101281.19;5074046;28;20039;-48
2023/08/23 07:20:58;;;;;;;8.68;6.35;;;;;;;18.47;95.51;101278.63;5073805;28;20028;-47
2023/08/23 07:23:24;;;;;;;6.20;5.60;;;;;;;18.45;95.29;101278.06;5080376;28;20478;-47
2023/08/23 07:25:51;;;;;;;5.78;5.00;;;;;;;18.57;94.26;101288.81;5073476;28;20099;-48
2023/08/23 07:28:17;;;;;;;6.05;5.45;;;;;;;18.45;94.42;101278.06;5080114;28;20048;-48
2023/08/23 07:30:49;;;;;;;7.05;6.00;;;;;;;18.43;94.53;101274.75;5094026;28;20028;-48
2023/08/23 07:33:16;;;;;;;6.70;5.53;;;;;;;18.38;94.68;101277.41;5093583;28;20051;-48
2023/08/23 07:35:43;;;;;;;6.85;6.15;;;;;;;18.39;93.48;101277.16;5093929;28;20047;-46
2023/08/23 07:38:09;;;;;;;8.82;5.95;;;;;;;18.31;94.98;101279.47;5093832;28;20020;-48
2023/08/23 07:40:38;;;;;;;7.63;5.60;;;;;;;18.42;93.61;101279.38;5094058;28;20020;-46
2023/08/23 07:43:05;;;;;;;5.72;5.13;;;;;;;18.36;93.70;101279.53;5093496;28;20024;-47
2023/08/23 07:45:31;;;;;;;5.30;4.80;;;;;;;18.41;92.43;101280.44;5073815;28;20035;-48
2023/08/23 07:47:58;;;;;;;5.30;4.80;;;;;;;18.40;92.46;101283.41;5073067;28;20480;-49
2023/08/23 07:50:24;;;;;;;5.43;4.88;;;;;;;18.58;92.26;101275.00;5073042;28;20048;-49
2023/08/23 07:52:50;;;;;;;6.00;5.32;;;;;;;18.41;93.04;101277.72;5073552;28;20028;-47
2023/08/23 07:55:16;;;;;;;5.40;4.90;;;;;;;18.58;91.97;101275.00;5073127;28;20028;-47
2023/08/23 07:57:43;;;;;;;5.20;4.70;;;;;;;18.57;91.58;101270.66;5073186;28;20032;-50
2023/08/23 08:00:09;;;;;;;7.63;5.72;;;;;;;18.53;92.00;101269.50;5072993;28;20026;-47
2023/08/23 08:02:36;;;;;;;5.47;4.88;;;;;;;18.55;92.72;101264.66;5084463;28;20032;-47
2023/08/23 08:05:02;;;;;;;6.50;4.93;;;;;;;18.60;91.83;101274.75;5092559;28;20024;-48
2023/08/23 08:07:30;;;;;;;5.20;4.70;;;;;;;18.68;91.24;101261.63;5092476;28;20032;-47
2023/08/23 08:09:57;;;;;;;6.00;5.40;;;;;;;18.60;91.91;101264.75;5093438;28;20107;-48
2023/08/23 08:12:23;;;;;;;5.85;4.97;;;;;;;18.64;91.90;101265.06;5073250;28;20040;-50
2023/08/23 08:14:49;;;;;;;5.97;5.38;;;;;;;18.70;91.58;101262.19;5092180;28;20405;-49
2023/08/23 08:17:15;;;;;;;5.60;4.88;;;;;;;18.62;91.63;101259.88;5092307;28;20036;-47
2023/08/23 08:19:42;;;;;;;6.05;5.05;;;;;;;18.53;92.59;101258.66;5093105;28;20035;-50
2023/08/23 08:22:08;;;;;;;7.47;6.00;;;;;;;18.41;93.91;101264.19;5091094;28;20020;-50
2023/08/23 08:24:36;;;;;;;5.88;5.13;;;;;;;18.65;92.44;101262.09;5092749;28;20431;-48
2023/08/23 08:27:03;;;;;;;6.35;4.80;;;;;;;18.69;92.21;101262.44;5092273;28;20482;-48
2023/08/23 08:29:29;;;;;;;5.68;4.95;;;;;;;18.61;91.64;101266.38;5092817;28;20099;-47
2023/08/23 08:31:55;;;;;;;6.32;5.68;;;;;;;18.70;91.89;101267.63;5091742;28;20367;-49
2023/08/23 08:34:21;;;;;;;6.28;5.68;;;;;;;18.68;91.74;101266.22;5092804;28;20431;-46
2023/08/23 08:36:48;;;;;;;6.60;5.90;;;;;;;18.72;91.68;101268.19;5088093;28;20040;-46
2023/08/23 08:39:14;;;;;;;6.20;5.40;;;;;;;18.59;93.14;101263.09;5072716;28;20439;-47
2023/08/23 08:41:41;;;;;;;7.07;6.10;;;;;;;18.48;93.74;101264.00;5070280;28;20032;-48
2023/08/23 08:44:11;;;;;;;6.80;5.90;;;;;;;18.48;93.53;101261.28;5084845;28;20024;-49
2023/08/23 08:46:38;;;;;;;6.80;6.10;;;;;;;18.46;93.59;101266.97;5092578;28;20028;-47
2023/08/23 08:49:04;;;;;;;6.75;5.70;;;;;;;18.64;93.24;101260.44;5083119;28;20030;-49
2023/08/23 08:51:35;;;;;;;8.70;6.70;;;;;;;18.53;93.45;101264.09;5091378;28;20044;-51
2023/08/23 08:54:05;;;;;;;7.40;6.32;;;;;;;18.45;94.48;101259.91;5091397;28;20028;-47
2023/08/23 08:56:31;;;;;;;7.80;6.97;;;;;;;18.48;94.28;101262.09;5092170;28;20028;-46
2023/08/23 08:58:59;;;;;;;6.65;5.95;;;;;;;18.40;94.97;101256.31;5091080;28;20028;-48
2023/08/23 09:01:31;;;;;;;8.38;6.95;;;;;;;18.43;94.59;101258.50;5081991;28;20035;-47
2023/08/23 09:03:59;;;;;;;8.93;7.50;;;;;;;18.31;95.46;101253.19;5092426;28;20435;-50
2023/08/23 09:06:27;;;;;;;8.52;7.22;;;;;;;18.40;94.50;101256.31;5090884;28;20031;-47
2023/08/23 09:08:54;;;;;;;8.35;6.70;;;;;;;18.53;93.80;101247.00;5092212;28;20024;-47
2023/08/23 09:11:20;;;;;;;10.05;7.32;;;;;;;18.52;93.55;101243.47;5091112;28;20331;-47
2023/08/23 09:13:47;;;;;;;9.70;6.30;;;;;;;18.67;93.11;101240.16;5091981;28;20062;-48
2023/08/23 09:16:14;;;;;;;9.10;7.25;;;;;;;18.56;93.69;101244.63;5088637;28;20465;-46
2023/08/23 09:18:44;;;;;;;13.25;7.85;;;;;;;18.40;94.44;101234.63;5092138;28;20030;-46
2023/08/23 09:21:12;;;;;;;8.57;6.78;;;;;;;18.55;93.87;101245.69;5091284;28;20024;-50
2023/08/23 09:23:39;;;;;;;7.97;7.18;;;;;;;18.45;94.11;101238.22;5092207;28;20348;-47
2023/08/23 09:26:06;;;;;;;9.45;7.32;;;;;;;18.40;93.86;101237.34;5090407;28;20116;-47
2023/08/23 09:28:33;;;;;;;9.25;8.18;;;;;;;18.32;95.27;101235.88;5091533;28;20031;-49
2023/08/23 09:31:00;;;;;;;12.90;8.60;;;;;;;18.37;94.97;101237.81;5091020;28;20505;-47
2023/08/23 09:33:27;;;;;;;10.77;8.93;;;;;;;18.35;95.23;101234.53;5089975;28;20241;-48
2023/08/23 09:35:58;;;;;;;11.88;9.40;;;;;;;18.24;96.15;101235.44;5091176;28;20035;-47
2023/08/23 09:38:24;;;;;;;10.13;8.48;;;;;;;18.33;96.12;101232.09;5087886;28;20031;-50
2023/08/23 09:40:51;;;;;;;11.70;9.60;;;;;;;18.34;95.71;101238.31;5090829;28;20116;-48
2023/08/23 09:43:17;;;;;;;11.73;9.52;;;;;;;18.35;95.44;101234.53;5091655;28;20024;-48
2023/08/23 09:45:45;;;;;;;11.98;9.23;;;;;;;18.35;95.27;101232.66;5089193;28;20063;-48
2023/08/23 09:48:12;;;;;;;12.23;9.65;;;;;;;18.39;94.73;101231.09;5091967;28;20024;-47
2023/08/23 09:50:38;;;;;;;13.10;10.57;;;;;;;18.27;95.37;101227.66;5090346;28;20043;-49
2023/08/23 09:53:06;;;;;;;11.13;9.18;;;;;;;18.37;94.46;101232.41;5091475;28;20032;-49
2023/08/23 09:55:33;;;;;;;12.50;9.63;;;;;;;18.38;94.77;101237.59;5090198;28;20044;-47
2023/08/23 09:58:01;;;;;;;10.77;8.73;;;;;;;18.42;94.36;101236.00;5091512;28;20085;-48
2023/08/23 10:00:28;;;;;;;12.85;10.07;;;;;;;18.40;94.45;101237.34;5090393;28;20040;-48
2023/08/23 10:02:58;;;;;;;11.43;8.90;;;;;;;18.54;93.60;101233.19;5090412;28;20020;-49
2023/08/23 10:05:26;;;;;;;13.35;9.63;;;;;;;18.38;93.80;101237.59;5091346;28;20032;-46
2023/08/23 10:07:55;;;;;;;13.52;10.02;;;;;;;18.46;93.86;101225.50;5091584;28;20032;-48
2023/08/23 10:10:22;;;;;;;16.05;10.77;;;;;;;18.37;94.75;101237.81;5091459;28;20024;-47
2023/08/23 10:12:52;;;;;;;12.57;9.95;;;;;;;18.41;94.07;101238.97;5091280;28;20153;-49
2023/08/23 10:15:26;;;;;;;16.85;10.15;;;;;;;18.47;93.70;101232.56;5090866;28;20024;-47
2023/08/23 10:17:53;;;;;;;14.00;10.65;;;;;;;18.48;93.79;101235.00;5091436;28;20470;-47
2023/08/23 10:20:23;;;;;;;18.15;10.75;;;;;;;18.47;93.61;101238.78;5091305;28;20032;-47
2023/08/23 10:22:54;;;;;;;18.02;10.82;;;;;;;18.44;93.98;101246.63;5091364;28;20031;-46
2023/08/23 10:25:21;;;;;;;15.68;8.95;;;;;;;18.35;93.88;101243.50;5090859;28;20066;-47
2023/08/23 10:27:52;;;;;;;13.13;10.25;;;;;;;18.40;94.67;101245.47;5091293;28;20024;-47
2023/08/23 10:30:28;;;;;;;16.75;11.88;;;;;;;18.26;94.72;101247.69;5087844;28;20031;-48
2023/08/23 10:33:06;;;;;;;18.83;11.18;;;;;;;18.45;93.79;101240.13;5069868;28;20032;-46
2023/08/23 10:35:33;;;;;;;18.33;11.50;;;;;;;18.42;93.67;101240.59;5070593;28;20017;-46
2023/08/23 10:38:00;;;;;;;16.98;10.68;;;;;;;18.41;93.59;101237.06;5070878;28;20048;-48
2023/08/23 10:40:31;;;;;;;13.88;9.98;;;;;;;18.35;93.92;101243.50;5075286;28;20016;-47
2023/08/23 10:42:58;;;;;;;15.45;10.68;;;;;;;18.33;94.09;101242.09;5073459;28;20043;-48
2023/08/23 10:45:25;;;;;;;16.80;10.30;;;;;;;18.27;94.45;101237.69;5075938;28;20390;-48
2023/08/23 10:47:52;;;;;;;13.18;10.05;;;;;;;18.48;93.17;101235.00;5074642;28;20021;-48
2023/08/23 10:50:19;;;;;;;17.00;10.60;;;;;;;18.41;93.60;101233.53;5074235;28;20225;-50
2023/08/23 10:52:49;;;;;;;14.35;10.40;;;;;;;18.32;93.99;101235.03;5074746;28;20075;-47
2023/08/23 10:55:16;;;;;;;13.23;10.10;;;;;;;18.16;94.83;101226.69;5074209;28;20436;-48
2023/08/23 10:57:42;;;;;;;13.32;9.38;;;;;;;18.20;94.22;101233.22;5074334;28;20020;-50
2023/08/23 11:00:09;;;;;;;14.95;10.52;;;;;;;18.33;93.70;101229.38;5074069;28;20323;-48
2023/08/23 11:02:35;;;;;;;15.38;10.43;;;;;;;18.38;93.88;101225.94;5090219;28;20463;-47
2023/08/23 11:05:02;;;;;;;16.13;10.60;;;;;;;18.30;94.19;101227.16;5094291;28;20024;-48
2023/08/23 11:07:28;;;;;;;17.10;11.02;;;;;;;18.18;95.02;101231.84;5087064;28;20071;-48
2023/08/23 11:09:55;;;;;;;17.67;10.30;;;;;;;18.23;94.12;101229.22;5080127;28;20029;-48
2023/08/23 11:12:21;;;;;;;16.75;10.40;;;;;;;18.27;94.50;101229.56;5074542;28;20036;-47
2023/08/23 11:14:48;;;;;;;14.02;10.02;;;;;;;18.39;93.79;101239.22;5081670;28;20032;-48
2023/08/23 11:17:15;;;;;;;17.10;10.38;;;;;;;18.25;94.34;101235.19;5074879;28;20039;-46
2023/08/23 11:19:42;;;;;;;13.95;10.10;;;;;;;18.24;93.98;101238.16;5079451;28;20029;-48